sensor_id;sensor_type;location;lat;lon;timestamp;pressure;altitude;pressure_sealevel;temperature;humidity
3434;BME280;1730;41.932;25.548;2023-02-16T00:00:29;100434.16;;;0.14;100.00
3434;BME280;1730;41.932;25.548;2023-02-16T00:02:55;100631.13;;;0.85;100.00
3434;BME280;1730;41.932;25.548;2023-02-16T00:05:30;100586.16;;;0.81;100.00
3434;BME280;1730;41.932;25.548;2023-02-16T00:07:57;100590.13;;;0.71;100.00
3434;BME280;1730;41.932;25.548;2023-02-16T00:10:24;100596.03;;;0.56;100.00
3434;BME280;1730;41.932;25.548;2023-02-16T00:12:51;100570.41;;;0.33;100.00
3434;BME280;1730;41.932;25.548;2023-02-16T00:15:36;100604.34;;;0.70;100.00
3434;BME280;1730;41.932;25.548;2023-02-16T00:18:02;100531.19;;;0.41;100.00
3434;BME280;1730;41.932;25.548;2023-02-16T00:20:30;100629.63;;;0.78;100.00
3434;BME280;1730;41.932;25.548;2023-02-16T00:22:56;100429.06;;;-0.36;100.00
3434;BME280;1730;41.932;25.548;2023-02-16T00:25:21;100601.72;;;0.68;100.00
3434;BME280;1730;41.932;25.548;2023-02-16T00:27:47;100631.16;;;0.62;100.00
3434;BME280;1730;41.932;25.548;2023-02-16T00:30:18;100441.16;;;-0.29;100.00
3434;BME280;1730;41.932;25.548;2023-02-16T00:32:45;100599.37;;;0.61;100.00
3434;BME280;1730;41.932;25.548;2023-02-16T00:35:18;100410.25;;;-0.75;100.00
3434;BME280;1730;41.932;25.548;2023-02-16T00:37:45;100601.31;;;0.34;100.00
3434;BME280;1730;41.932;25.548;2023-02-16T00:40:13;100611.41;;;0.24;100.00
3434;BME280;1730;41.932;25.548;2023-02-16T00:42:39;100532.44;;;0.09;100.00
3434;BME280;1730;41.932;25.548;2023-02-16T00:45:12;100320.97;;;-1.41;100.00
3434;BME280;1730;41.932;25.548;2023-02-16T00:47:41;100609.09;;;0.38;100.00
3434;BME280;1730;41.932;25.548;2023-02-16T00:52:53;100171.47;;;-2.22;100.00
3434;BME280;1730;41.932;25.548;2023-02-16T00:55:21;100396.53;;;-0.86;100.00
3434;BME280;1730;41.932;25.548;2023-02-16T00:57:51;100604.50;;;0.20;100.00
3434;BME280;1730;41.932;25.548;2023-02-16T01:00:29;100609.44;;;0.29;100.00
3434;BME280;1730;41.932;25.548;2023-02-16T01:02:58;100605.44;;;0.18;100.00
3434;BME280;1730;41.932;25.548;2023-02-16T01:05:24;100610.75;;;0.18;100.00
3434;BME280;1730;41.932;25.548;2023-02-16T01:07:50;100332.44;;;-1.42;100.00
3434;BME280;1730;41.932;25.548;2023-02-16T01:10:36;100649.94;;;0.34;100.00
3434;BME280;1730;41.932;25.548;2023-02-16T01:13:21;100323.78;;;-1.22;100.00
3434;BME280;1730;41.932;25.548;2023-02-16T01:15:47;100393.66;;;-0.80;100.00
3434;BME280;1730;41.932;25.548;2023-02-16T01:18:16;100606.09;;;0.48;100.00
3434;BME280;1730;41.932;25.548;2023-02-16T01:20:42;100595.72;;;0.41;100.00
3434;BME280;1730;41.932;25.548;2023-02-16T01:23:08;100175.06;;;-2.00;100.00
3434;BME280;1730;41.932;25.548;2023-02-16T01:25:35;100552.47;;;0.39;100.00
3434;BME280;1730;41.932;25.548;2023-02-16T01:28:00;100412.31;;;-0.36;100.00
3434;BME280;1730;41.932;25.548;2023-02-16T01:30:26;100518.25;;;0.10;100.00
3434;BME280;1730;41.932;25.548;2023-02-16T01:32:52;100582.09;;;0.51;100.00
3434;BME280;1730;41.932;25.548;2023-02-16T01:35:23;100609.84;;;0.42;100.00
3434;BME280;1730;41.932;25.548;2023-02-16T01:37:52;100503.28;;;-0.37;100.00
3434;BME280;1730;41.932;25.548;2023-02-16T01:46:07;100033.94;;;-3.15;100.00
3434;BME280;1730;41.932;25.548;2023-02-16T01:48:36;100521.63;;;-0.56;100.00
3434;BME280;1730;41.932;25.548;2023-02-16T01:51:17;100457.97;;;-0.53;100.00
3434;BME280;1730;41.932;25.548;2023-02-16T01:54:04;100588.31;;;0.50;100.00
3434;BME280;1730;41.932;25.548;2023-02-16T01:59:07;100587.56;;;0.46;100.00
3434;BME280;1730;41.932;25.548;2023-02-16T02:04:13;100689.25;;;0.47;100.00
3434;BME280;1730;41.932;25.548;2023-02-16T02:06:57;100422.44;;;-0.48;100.00
3434;BME280;1730;41.932;25.548;2023-02-16T02:09:30;100433.91;;;-0.70;100.00
3434;BME280;1730;41.932;25.548;2023-02-16T02:14:35;100593.00;;;0.20;100.00
3434;BME280;1730;41.932;25.548;2023-02-16T02:17:05;100592.28;;;0.16;100.00
3434;BME280;1730;41.932;25.548;2023-02-16T02:28:37;100606.41;;;0.17;100.00
3434;BME280;1730;41.932;25.548;2023-02-16T02:36:23;100607.88;;;0.24;100.00
3434;BME280;1730;41.932;25.548;2023-02-16T02:39:08;100595.53;;;0.23;100.00
3434;BME280;1730;41.932;25.548;2023-02-16T02:41:52;100603.75;;;0.17;100.00
3434;BME280;1730;41.932;25.548;2023-02-16T02:44:30;100590.91;;;0.05;100.00
3434;BME280;1730;41.932;25.548;2023-02-16T02:46:58;100587.88;;;0.15;100.00
3434;BME280;1730;41.932;25.548;2023-02-16T02:49:24;100610.84;;;0.16;100.00
3434;BME280;1730;41.932;25.548;2023-02-16T02:51:50;100610.59;;;-0.01;100.00
3434;BME280;1730;41.932;25.548;2023-02-16T02:54:37;100566.53;;;-0.28;100.00
3434;BME280;1730;41.932;25.548;2023-02-16T02:57:36;99967.88;;;-3.90;100.00
3434;BME280;1730;41.932;25.548;2023-02-16T03:00:39;100626.31;;;-0.44;100.00
3434;BME280;1730;41.932;25.548;2023-02-16T03:05:51;100608.81;;;-0.50;100.00
3434;BME280;1730;41.932;25.548;2023-02-16T03:08:21;100477.00;;;-1.16;100.00
3434;BME280;1730;41.932;25.548;2023-02-16T03:10:50;100612.91;;;-0.40;100.00
3434;BME280;1730;41.932;25.548;2023-02-16T03:13:46;100632.97;;;-0.34;100.00
3434;BME280;1730;41.932;25.548;2023-02-16T03:16:21;100507.13;;;-1.20;100.00
3434;BME280;1730;41.932;25.548;2023-02-16T03:18:48;100423.22;;;-1.17;100.00
3434;BME280;1730;41.932;25.548;2023-02-16T03:21:33;100336.13;;;-1.46;100.00
3434;BME280;1730;41.932;25.548;2023-02-16T03:24:24;100605.88;;;0.30;100.00
3434;BME280;1730;41.932;25.548;2023-02-16T03:27:11;100474.94;;;-0.59;100.00
3434;BME280;1730;41.932;25.548;2023-02-16T03:29:57;100459.22;;;-0.63;100.00
3434;BME280;1730;41.932;25.548;2023-02-16T03:32:25;100440.28;;;-0.76;100.00
3434;BME280;1730;41.932;25.548;2023-02-16T03:34:51;100461.38;;;-0.98;100.00
3434;BME280;1730;41.932;25.548;2023-02-16T03:37:17;100467.78;;;-0.80;100.00
3434;BME280;1730;41.932;25.548;2023-02-16T03:39:43;100645.22;;;-0.06;100.00
3434;BME280;1730;41.932;25.548;2023-02-16T03:42:26;100624.50;;;-0.19;100.00
3434;BME280;1730;41.932;25.548;2023-02-16T03:44:52;100509.72;;;-0.68;100.00
3434;BME280;1730;41.932;25.548;2023-02-16T03:47:18;100597.88;;;-0.16;100.00
3434;BME280;1730;41.932;25.548;2023-02-16T03:49:44;100510.69;;;-0.70;100.00
3434;BME280;1730;41.932;25.548;2023-02-16T03:52:09;100620.44;;;-0.29;100.00
3434;BME280;1730;41.932;25.548;2023-02-16T03:54:35;100460.69;;;-1.04;100.00
3434;BME280;1730;41.932;25.548;2023-02-16T03:57:00;100590.63;;;-0.11;100.00
3434;BME280;1730;41.932;25.548;2023-02-16T03:59:26;100252.62;;;-2.28;100.00
3434;BME280;1730;41.932;25.548;2023-02-16T04:01:51;100614.34;;;-0.31;100.00
3434;BME280;1730;41.932;25.548;2023-02-16T04:04:17;100601.59;;;-0.45;100.00
3434;BME280;1730;41.932;25.548;2023-02-16T04:06:42;100463.66;;;-1.13;100.00
3434;BME280;1730;41.932;25.548;2023-02-16T04:09:08;100461.38;;;-0.98;100.00
3434;BME280;1730;41.932;25.548;2023-02-16T04:11:35;100331.81;;;-2.00;100.00
3434;BME280;1730;41.932;25.548;2023-02-16T04:14:19;100210.00;;;-2.68;100.00
3434;BME280;1730;41.932;25.548;2023-02-16T04:16:45;100551.03;;;-0.88;100.00
3434;BME280;1730;41.932;25.548;2023-02-16T04:19:10;100265.19;;;-2.62;100.00
3434;BME280;1730;41.932;25.548;2023-02-16T04:21:36;100641.06;;;-0.64;100.00
3434;BME280;1730;41.932;25.548;2023-02-16T04:24:02;100291.50;;;-2.59;100.00
3434;BME280;1730;41.932;25.548;2023-02-16T04:26:31;100481.81;;;-1.27;100.00
3434;BME280;1730;41.932;25.548;2023-02-16T04:28:57;100616.09;;;-0.57;100.00
3434;BME280;1730;41.932;25.548;2023-02-16T04:31:23;100424.25;;;-1.72;100.00
3434;BME280;1730;41.932;25.548;2023-02-16T04:33:48;100441.44;;;-1.59;100.00
3434;BME280;1730;41.932;25.548;2023-02-16T04:36:14;100274.87;;;-2.62;100.00
3434;BME280;1730;41.932;25.548;2023-02-16T04:38:39;100635.66;;;-0.61;100.00
3434;BME280;1730;41.932;25.548;2023-02-16T04:41:05;100671.56;;;-0.52;100.00
3434;BME280;1730;41.932;25.548;2023-02-16T04:43:31;100668.31;;;-0.60;100.00
3434;BME280;1730;41.932;25.548;2023-02-16T04:45:57;100655.81;;;-0.57;100.00
3434;BME280;1730;41.932;25.548;2023-02-16T04:48:23;100626.09;;;-0.65;100.00
3434;BME280;1730;41.932;25.548;2023-02-16T04:50:49;100486.12;;;-1.79;100.00
3434;BME280;1730;41.932;25.548;2023-02-16T04:53:15;100493.88;;;-1.45;100.00
3434;BME280;1730;41.932;25.548;2023-02-16T04:55:48;100605.66;;;-0.86;100.00
3434;BME280;1730;41.932;25.548;2023-02-16T04:58:14;100571.19;;;-1.11;100.00
3434;BME280;1730;41.932;25.548;2023-02-16T05:00:40;100463.44;;;-1.85;100.00
3434;BME280;1730;41.932;25.548;2023-02-16T05:03:06;100638.72;;;-0.99;100.00
3434;BME280;1730;41.932;25.548;2023-02-16T05:05:31;100586.34;;;-1.44;100.00
3434;BME280;1730;41.932;25.548;2023-02-16T05:08:00;100674.87;;;-0.98;100.00
3434;BME280;1730;41.932;25.548;2023-02-16T05:10:26;100390.84;;;-2.56;100.00
3434;BME280;1730;41.932;25.548;2023-02-16T05:12:52;100560.50;;;-1.62;100.00
3434;BME280;1730;41.932;25.548;2023-02-16T05:15:36;100663.91;;;-0.87;100.00
3434;BME280;1730;41.932;25.548;2023-02-16T05:18:03;100664.31;;;-0.72;100.00
3434;BME280;1730;41.932;25.548;2023-02-16T05:20:29;100619.28;;;-0.98;100.00
3434;BME280;1730;41.932;25.548;2023-02-16T05:23:13;100661.09;;;-0.55;100.00
3434;BME280;1730;41.932;25.548;2023-02-16T05:25:39;100632.97;;;-0.59;100.00
3434;BME280;1730;41.932;25.548;2023-02-16T05:28:04;100657.28;;;-0.48;100.00
3434;BME280;1730;41.932;25.548;2023-02-16T05:30:30;100711.94;;;-0.44;100.00
3434;BME280;1730;41.932;25.548;2023-02-16T05:32:57;100688.19;;;0.04;100.00
3434;BME280;1730;41.932;25.548;2023-02-16T05:35:23;100673.09;;;0.05;100.00
3434;BME280;1730;41.932;25.548;2023-02-16T05:37:48;100659.62;;;0.11;100.00
3434;BME280;1730;41.932;25.548;2023-02-16T05:40:14;100681.59;;;0.14;100.00
3434;BME280;1730;41.932;25.548;2023-02-16T05:42:39;100668.25;;;0.17;100.00
3434;BME280;1730;41.932;25.548;2023-02-16T05:45:05;100630.19;;;0.41;100.00
3434;BME280;1730;41.932;25.548;2023-02-16T05:47:31;100472.06;;;-1.27;100.00
3434;BME280;1730;41.932;25.548;2023-02-16T05:49:56;100165.28;;;-2.46;100.00
3434;BME280;1730;41.932;25.548;2023-02-16T05:52:22;100497.53;;;-0.02;100.00
3434;BME280;1730;41.932;25.548;2023-02-16T05:54:47;100434.41;;;-0.37;100.00
3434;BME280;1730;41.932;25.548;2023-02-16T05:57:13;100469.06;;;-0.20;100.00
3434;BME280;1730;41.932;25.548;2023-02-16T05:59:38;100308.53;;;-1.14;100.00
3434;BME280;1730;41.932;25.548;2023-02-16T06:02:04;100423.19;;;-0.67;100.00
3434;BME280;1730;41.932;25.548;2023-02-16T06:04:29;100678.03;;;0.62;100.00
3434;BME280;1730;41.932;25.548;2023-02-16T06:06:57;100276.22;;;-1.47;100.00
3434;BME280;1730;41.932;25.548;2023-02-16T06:09:27;100509.50;;;0.08;100.00
3434;BME280;1730;41.932;25.548;2023-02-16T06:11:52;100529.50;;;-0.07;100.00
3434;BME280;1730;41.932;25.548;2023-02-16T06:14:19;100505.25;;;-0.19;100.00
3434;BME280;1730;41.932;25.548;2023-02-16T06:16:47;100643.47;;;0.86;100.00
3434;BME280;1730;41.932;25.548;2023-02-16T06:19:15;100586.75;;;0.44;100.00
3434;BME280;1730;41.932;25.548;2023-02-16T06:21:41;100719.00;;;0.78;100.00
3434;BME280;1730;41.932;25.548;2023-02-16T06:24:09;100648.22;;;0.78;100.00
3434;BME280;1730;41.932;25.548;2023-02-16T06:26:35;100642.56;;;0.87;100.00
3434;BME280;1730;41.932;25.548;2023-02-16T06:29:00;100507.78;;;0.07;100.00
3434;BME280;1730;41.932;25.548;2023-02-16T06:31:26;100639.56;;;1.17;100.00
3434;BME280;1730;41.932;25.548;2023-02-16T06:33:53;100637.94;;;1.34;100.00
3434;BME280;1730;41.932;25.548;2023-02-16T06:36:18;100637.31;;;1.70;100.00
3434;BME280;1730;41.932;25.548;2023-02-16T06:38:44;100589.94;;;1.59;100.00
3434;BME280;1730;41.932;25.548;2023-02-16T06:41:10;100373.69;;;-0.20;100.00
3434;BME280;1730;41.932;25.548;2023-02-16T06:43:36;100668.88;;;1.57;100.00
3434;BME280;1730;41.932;25.548;2023-02-16T06:46:02;100587.00;;;1.86;100.00
3434;BME280;1730;41.932;25.548;2023-02-16T06:48:28;100623.50;;;2.21;100.00
3434;BME280;1730;41.932;25.548;2023-02-16T06:50:55;100110.00;;;-0.91;100.00
3434;BME280;1730;41.932;25.548;2023-02-16T06:53:20;100649.94;;;2.44;100.00
3434;BME280;1730;41.932;25.548;2023-02-16T06:55:50;100448.09;;;1.62;100.00
3434;BME280;1730;41.932;25.548;2023-02-16T06:58:15;100643.72;;;2.81;100.00
3434;BME280;1730;41.932;25.548;2023-02-16T07:00:41;100625.06;;;3.00;100.00
3434;BME280;1730;41.932;25.548;2023-02-16T07:03:06;100467.72;;;1.97;100.00
3434;BME280;1730;41.932;25.548;2023-02-16T07:05:32;100442.41;;;2.43;100.00
3434;BME280;1730;41.932;25.548;2023-02-16T07:07:58;100569.50;;;3.28;100.00
3434;BME280;1730;41.932;25.548;2023-02-16T07:10:26;100604.69;;;3.69;100.00
3434;BME280;1730;41.932;25.548;2023-02-16T07:12:53;100433.28;;;2.48;100.00
3434;BME280;1730;41.932;25.548;2023-02-16T07:15:20;100605.94;;;3.62;100.00
3434;BME280;1730;41.932;25.548;2023-02-16T07:17:46;100299.56;;;2.26;100.00
3434;BME280;1730;41.932;25.548;2023-02-16T07:20:11;100605.09;;;4.12;100.00
3434;BME280;1730;41.932;25.548;2023-02-16T07:22:37;100093.44;;;1.50;100.00
3434;BME280;1730;41.932;25.548;2023-02-16T07:25:03;100624.59;;;4.78;100.00
3434;BME280;1730;41.932;25.548;2023-02-16T07:27:32;100589.50;;;4.99;100.00
3434;BME280;1730;41.932;25.548;2023-02-16T07:30:08;100617.41;;;5.10;100.00
3434;BME280;1730;41.932;25.548;2023-02-16T07:32:51;100586.66;;;5.48;100.00
3434;BME280;1730;41.932;25.548;2023-02-16T07:35:18;100589.44;;;5.61;100.00
3434;BME280;1730;41.932;25.548;2023-02-16T07:37:44;100602.59;;;5.50;100.00
3434;BME280;1730;41.932;25.548;2023-02-16T07:40:10;100453.78;;;4.75;100.00
3434;BME280;1730;41.932;25.548;2023-02-16T07:42:36;100520.16;;;4.96;100.00
3434;BME280;1730;41.932;25.548;2023-02-16T07:45:02;100145.25;;;2.59;100.00
3434;BME280;1730;41.932;25.548;2023-02-16T07:47:28;100571.66;;;5.89;100.00
3434;BME280;1730;41.932;25.548;2023-02-16T07:49:55;100554.22;;;5.82;100.00
3434;BME280;1730;41.932;25.548;2023-02-16T07:52:20;100575.87;;;6.36;100.00
3434;BME280;1730;41.932;25.548;2023-02-16T07:54:46;100601.78;;;6.50;100.00
3434;BME280;1730;41.932;25.548;2023-02-16T07:57:13;100292.53;;;5.18;100.00
3434;BME280;1730;41.932;25.548;2023-02-16T07:59:38;99871.34;;;2.84;100.00
3434;BME280;1730;41.932;25.548;2023-02-16T08:02:04;100419.56;;;5.82;100.00
3434;BME280;1730;41.932;25.548;2023-02-16T08:04:29;100165.44;;;5.00;100.00
3434;BME280;1730;41.932;25.548;2023-02-16T08:06:55;100420.63;;;7.13;100.00
3434;BME280;1730;41.932;25.548;2023-02-16T08:09:22;100060.22;;;4.33;100.00
3434;BME280;1730;41.932;25.548;2023-02-16T08:11:49;100564.28;;;7.69;100.00
3434;BME280;1730;41.932;25.548;2023-02-16T08:14:14;100201.12;;;5.67;100.00
3434;BME280;1730;41.932;25.548;2023-02-16T08:16:44;100552.69;;;7.94;100.00
3434;BME280;1730;41.932;25.548;2023-02-16T08:19:10;100562.03;;;8.27;100.00
3434;BME280;1730;41.932;25.548;2023-02-16T08:21:38;100379.84;;;7.34;100.00
3434;BME280;1730;41.932;25.548;2023-02-16T08:24:05;100555.50;;;8.43;100.00
3434;BME280;1730;41.932;25.548;2023-02-16T08:26:35;100558.41;;;8.28;100.00
3434;BME280;1730;41.932;25.548;2023-02-16T08:29:02;100555.31;;;8.70;100.00
3434;BME280;1730;41.932;25.548;2023-02-16T08:31:30;100391.22;;;7.37;100.00
3434;BME280;1730;41.932;25.548;2023-02-16T08:33:57;100124.28;;;5.96;100.00
3434;BME280;1730;41.932;25.548;2023-02-16T08:38:55;100640.28;;;8.85;100.00
3434;BME280;1730;41.932;25.548;2023-02-16T08:41:22;100561.66;;;9.05;100.00
3434;BME280;1730;41.932;25.548;2023-02-16T08:43:49;100560.50;;;8.97;100.00
3434;BME280;1730;41.932;25.548;2023-02-16T08:46:16;100457.19;;;8.52;100.00
3434;BME280;1730;41.932;25.548;2023-02-16T08:48:42;100515.75;;;9.20;100.00
3434;BME280;1730;41.932;25.548;2023-02-16T08:51:13;100466.53;;;8.83;100.00
3434;BME280;1730;41.932;25.548;2023-02-16T08:53:40;100394.38;;;8.42;100.00
3434;BME280;1730;41.932;25.548;2023-02-16T08:56:05;100555.72;;;9.48;100.00
3434;BME280;1730;41.932;25.548;2023-02-16T08:58:34;100576.47;;;9.70;100.00
3434;BME280;1730;41.932;25.548;2023-02-16T09:01:08;100554.44;;;9.65;100.00
3434;BME280;1730;41.932;25.548;2023-02-16T09:03:36;100552.94;;;10.07;100.00
3434;BME280;1730;41.932;25.548;2023-02-16T09:06:04;100552.28;;;9.92;100.00
3434;BME280;1730;41.932;25.548;2023-02-16T09:08:32;100553.22;;;10.37;100.00
3434;BME280;1730;41.932;25.548;2023-02-16T09:11:02;100566.59;;;10.38;100.00
3434;BME280;1730;41.932;25.548;2023-02-16T09:13:28;100573.84;;;9.92;100.00
3434;BME280;1730;41.932;25.548;2023-02-16T09:16:01;99967.44;;;6.90;100.00
3434;BME280;1730;41.932;25.548;2023-02-16T09:18:34;100559.44;;;10.82;100.00
3434;BME280;1730;41.932;25.548;2023-02-16T09:21:11;100606.44;;;10.68;100.00
3434;BME280;1730;41.932;25.548;2023-02-16T09:23:41;100547.03;;;10.79;100.00
3434;BME280;1730;41.932;25.548;2023-02-16T09:26:11;100552.97;;;10.73;100.00
3434;BME280;1730;41.932;25.548;2023-02-16T09:28:43;100047.09;;;7.59;100.00
3434;BME280;1730;41.932;25.548;2023-02-16T09:31:36;100550.88;;;10.88;100.00
3434;BME280;1730;41.932;25.548;2023-02-16T09:34:20;100564.97;;;11.23;100.00
3434;BME280;1730;41.932;25.548;2023-02-16T09:36:51;100535.53;;;11.52;98.62
3434;BME280;1730;41.932;25.548;2023-02-16T09:39:17;100540.53;;;11.36;97.34
3434;BME280;1730;41.932;25.548;2023-02-16T09:42:09;100419.50;;;10.46;99.25
3434;BME280;1730;41.932;25.548;2023-02-16T09:47:21;100215.22;;;9.31;97.20
3434;BME280;1730;41.932;25.548;2023-02-16T09:49:49;100250.25;;;9.74;98.82
3434;BME280;1730;41.932;25.548;2023-02-16T09:52:37;99908.38;;;8.04;93.85
3434;BME280;1730;41.932;25.548;2023-02-16T09:55:11;100518.00;;;12.09;92.82
3434;BME280;1730;41.932;25.548;2023-02-16T09:58:13;100543.00;;;12.01;92.89
3434;BME280;1730;41.932;25.548;2023-02-16T10:00:50;100537.25;;;12.55;91.88
3434;BME280;1730;41.932;25.548;2023-02-16T10:03:44;100178.44;;;10.48;90.33
3434;BME280;1730;41.932;25.548;2023-02-16T10:08:49;100535.84;;;12.21;96.89
3434;BME280;1730;41.932;25.548;2023-02-16T10:11:31;100495.09;;;11.83;100.00
3434;BME280;1730;41.932;25.548;2023-02-16T10:19:42;100485.28;;;12.12;97.48
3434;BME280;1730;41.932;25.548;2023-02-16T10:25:13;100483.38;;;12.33;99.86
3434;BME280;1730;41.932;25.548;2023-02-16T10:31:01;100471.94;;;12.70;98.04
3434;BME280;1730;41.932;25.548;2023-02-16T10:42:35;100457.72;;;12.87;97.38
3434;BME280;1730;41.932;25.548;2023-02-16T10:45:19;100455.91;;;13.26;91.36
3434;BME280;1730;41.932;25.548;2023-02-16T10:47:47;100324.94;;;12.59;89.66
3434;BME280;1730;41.932;25.548;2023-02-16T10:50:38;100448.62;;;13.17;89.82
3434;BME280;1730;41.932;25.548;2023-02-16T10:53:45;100440.22;;;13.00;91.02
3434;BME280;1730;41.932;25.548;2023-02-16T10:59:27;100435.12;;;13.82;83.02
3434;BME280;1730;41.932;25.548;2023-02-16T11:02:29;100424.16;;;13.74;82.47
3434;BME280;1730;41.932;25.548;2023-02-16T11:05:00;100428.34;;;13.59;83.44
3434;BME280;1730;41.932;25.548;2023-02-16T11:07:27;100412.47;;;13.74;83.50
3434;BME280;1730;41.932;25.548;2023-02-16T11:09:56;100420.94;;;13.51;85.18
3434;BME280;1730;41.932;25.548;2023-02-16T11:12:32;100407.44;;;13.32;86.63
3434;BME280;1730;41.932;25.548;2023-02-16T11:15:04;100395.75;;;13.78;83.66
3434;BME280;1730;41.932;25.548;2023-02-16T11:23:26;100386.09;;;13.66;81.81
3434;BME280;1730;41.932;25.548;2023-02-16T11:25:59;100382.59;;;13.46;83.54
3434;BME280;1730;41.932;25.548;2023-02-16T11:28:30;100386.66;;;14.34;78.41
3434;BME280;1730;41.932;25.548;2023-02-16T11:34:03;100381.41;;;13.95;73.77
3434;BME280;1730;41.932;25.548;2023-02-16T11:39:40;100377.66;;;14.06;72.82
3434;BME280;1730;41.932;25.548;2023-02-16T11:44:58;100369.66;;;14.32;67.50
3434;BME280;1730;41.932;25.548;2023-02-16T11:47:43;100368.63;;;14.42;64.21
3434;BME280;1730;41.932;25.548;2023-02-16T11:50:22;100359.16;;;14.47;62.64
3434;BME280;1730;41.932;25.548;2023-02-16T11:52:52;100352.44;;;14.51;62.09
3434;BME280;1730;41.932;25.548;2023-02-16T11:55:28;100349.53;;;14.87;61.38
3434;BME280;1730;41.932;25.548;2023-02-16T12:12:59;100375.94;;;14.60;60.63
3434;BME280;1730;41.932;25.548;2023-02-16T12:15:38;100370.78;;;14.92;59.69
3434;BME280;1730;41.932;25.548;2023-02-16T12:18:38;100321.34;;;15.06;59.40
3434;BME280;1730;41.932;25.548;2023-02-16T12:27:19;100292.69;;;15.12;61.00
3434;BME280;1730;41.932;25.548;2023-02-16T12:38:53;100259.53;;;15.00;60.64
3434;BME280;1730;41.932;25.548;2023-02-16T12:47:07;100287.63;;;15.76;56.84
3434;BME280;1730;41.932;25.548;2023-02-16T12:56:07;100270.75;;;16.15;54.93
3434;BME280;1730;41.932;25.548;2023-02-16T12:58:44;99702.84;;;11.42;57.16
3434;BME280;1730;41.932;25.548;2023-02-16T13:01:26;100269.84;;;14.97;59.08
3434;BME280;1730;41.932;25.548;2023-02-16T13:07:25;100267.47;;;15.27;58.11
3434;BME280;1730;41.932;25.548;2023-02-16T13:10:23;100252.88;;;15.96;56.82
3434;BME280;1730;41.932;25.548;2023-02-16T13:13:00;100263.50;;;15.40;56.64
3434;BME280;1730;41.932;25.548;2023-02-16T13:15:39;100105.94;;;14.28;58.04
3434;BME280;1730;41.932;25.548;2023-02-16T13:18:20;100248.91;;;15.15;58.59
3434;BME280;1730;41.932;25.548;2023-02-16T13:20:50;100245.19;;;15.50;57.25
3434;BME280;1730;41.932;25.548;2023-02-16T13:38:00;100263.28;;;15.07;56.74
3434;BME280;1730;41.932;25.548;2023-02-16T13:46:04;100247.41;;;14.69;58.45
3434;BME280;1730;41.932;25.548;2023-02-16T13:48:49;100231.38;;;14.83;58.25
3434;BME280;1730;41.932;25.548;2023-02-16T13:53:58;100225.22;;;15.33;56.83
3434;BME280;1730;41.932;25.548;2023-02-16T13:58:58;100242.84;;;14.95;57.94
3434;BME280;1730;41.932;25.548;2023-02-16T14:01:40;100215.59;;;15.05;57.67
3434;BME280;1730;41.932;25.548;2023-02-16T14:14:59;100285.84;;;15.51;55.57
3434;BME280;1730;41.932;25.548;2023-02-16T14:27:49;100219.69;;;15.09;56.02
3434;BME280;1730;41.932;25.548;2023-02-16T14:30:24;100214.56;;;14.80;56.10
3434;BME280;1730;41.932;25.548;2023-02-16T14:33:03;100052.81;;;14.00;55.89
3434;BME280;1730;41.932;25.548;2023-02-16T14:35:36;100043.31;;;13.96;55.72
3434;BME280;1730;41.932;25.548;2023-02-16T14:38:05;100081.06;;;14.33;55.66
3434;BME280;1730;41.932;25.548;2023-02-16T14:40:52;100083.16;;;14.39;55.61
3434;BME280;1730;41.932;25.548;2023-02-16T14:49:17;100195.06;;;14.84;54.99
3434;BME280;1730;41.932;25.548;2023-02-16T14:57:15;100185.44;;;14.64;56.62
3434;BME280;1730;41.932;25.548;2023-02-16T14:59:57;100183.63;;;14.73;56.36
3434;BME280;1730;41.932;25.548;2023-02-16T15:02:31;100186.59;;;14.62;56.40
3434;BME280;1730;41.932;25.548;2023-02-16T15:05:16;100081.19;;;14.06;56.28
3434;BME280;1730;41.932;25.548;2023-02-16T15:07:45;100188.66;;;14.42;57.82
3434;BME280;1730;41.932;25.548;2023-02-16T15:10:18;100093.25;;;13.68;59.26
3434;BME280;1730;41.932;25.548;2023-02-16T15:12:52;100186.09;;;14.05;59.94
3434;BME280;1730;41.932;25.548;2023-02-16T15:15:24;100185.63;;;13.74;61.54
3434;BME280;1730;41.932;25.548;2023-02-16T15:17:52;99945.72;;;12.09;62.65
3434;BME280;1730;41.932;25.548;2023-02-16T15:20:38;100048.69;;;12.62;64.26
3434;BME280;1730;41.932;25.548;2023-02-16T15:23:16;100180.59;;;13.34;64.57
3434;BME280;1730;41.932;25.548;2023-02-16T15:26:00;100178.03;;;13.33;64.56
3434;BME280;1730;41.932;25.548;2023-02-16T15:28:29;99943.16;;;12.08;63.62
3434;BME280;1730;41.932;25.548;2023-02-16T15:31:16;100193.31;;;13.34;65.18
3434;BME280;1730;41.932;25.548;2023-02-16T15:34:05;99994.41;;;12.09;66.08
3434;BME280;1730;41.932;25.548;2023-02-16T15:36:43;99560.59;;;9.20;68.11
3434;BME280;1730;41.932;25.548;2023-02-16T15:39:27;100184.84;;;13.00;68.71
3434;BME280;1730;41.932;25.548;2023-02-16T15:42:19;100172.63;;;12.86;69.86
3434;BME280;1730;41.932;25.548;2023-02-16T15:44:45;100180.81;;;12.77;72.80
3434;BME280;1730;41.932;25.548;2023-02-16T15:49:40;100206.50;;;12.63;74.11
3434;BME280;1730;41.932;25.548;2023-02-16T15:52:16;100184.44;;;12.48;75.15
3434;BME280;1730;41.932;25.548;2023-02-16T15:54:43;100188.44;;;12.15;78.14
3434;BME280;1730;41.932;25.548;2023-02-16T15:57:30;99682.47;;;8.50;79.24
3434;BME280;1730;41.932;25.548;2023-02-16T15:59:58;100258.16;;;11.93;81.25
3434;BME280;1730;41.932;25.548;2023-02-16T16:02:40;100185.00;;;11.65;83.58
3434;BME280;1730;41.932;25.548;2023-02-16T16:05:18;100180.25;;;11.39;88.11
3434;BME280;1730;41.932;25.548;2023-02-16T16:07:46;100193.37;;;11.13;91.86
3434;BME280;1730;41.932;25.548;2023-02-16T16:10:17;100126.41;;;10.67;93.20
3434;BME280;1730;41.932;25.548;2023-02-16T16:12:46;100192.63;;;11.01;96.11
3434;BME280;1730;41.932;25.548;2023-02-16T16:15:20;100225.81;;;11.22;94.60
3434;BME280;1730;41.932;25.548;2023-02-16T16:17:48;100207.19;;;11.29;93.61
3434;BME280;1730;41.932;25.548;2023-02-16T16:22:43;100206.25;;;11.40;93.17
3434;BME280;1730;41.932;25.548;2023-02-16T16:25:42;100157.44;;;11.12;93.22
3434;BME280;1730;41.932;25.548;2023-02-16T16:28:32;100144.66;;;10.74;95.55